Time;durP1;ratioP1;P1;durP2;ratioP2;P2;SDS_P1;SDS_P2;PMS_P1;PMS_P2;Temp;Humidity;BMP_temperature;BMP_pressure;BME280_temperature;BME280_humidity;BME280_pressure;Samples;Min_cycle;Max_cycle;Signal;HPM_P1;HPM_P2
2022/07/29 00:02:02;;;;;;;1.17;0.80;;;;;;;;;;5006455;28;20319;-68
2022/07/29 00:04:32;;;;;;;1.10;1.00;;;;;;;;;;5009498;28;20302;-68
2022/07/29 00:07:06;;;;;;;1.10;0.80;;;;;;;;;;4995976;28;20679;-68
2022/07/29 00:09:39;;;;;;;0.67;0.67;;;;;;;;;;5008490;28;20214;-69
2022/07/29 00:12:25;;;;;;;0.70;0.70;;;;;;;;;;5024444;28;20794;-67
2022/07/29 00:15:00;;;;;;;1.10;1.00;;;;;;;;;;5008581;28;20210;-68
2022/07/29 00:17:30;;;;;;;0.80;0.80;;;;;;;;;;5003756;28;20633;-67
2022/07/29 00:20:01;;;;;;;1.00;0.80;;;;;;;;;;5011419;28;20255;-67
2022/07/29 00:22:32;;;;;;;0.80;0.80;;;;;;;;;;4991202;28;20619;-67
2022/07/29 00:25:07;;;;;;;1.03;0.90;;;;;;;;;;5017500;28;20198;-66
2022/07/29 00:27:41;;;;;;;0.70;0.70;;;;;;;;;;5005031;28;20277;-69
2022/07/29 00:30:12;;;;;;;0.93;0.90;;;;;;;;;;4992505;28;20188;-68
2022/07/29 00:32:43;;;;;;;0.90;0.80;;;;;;;;;;5005889;28;20680;-68
2022/07/29 00:38:03;;;;;;;0.80;0.80;;;;;;;;;;5015828;28;20217;-67
2022/07/29 00:40:35;;;;;;;0.70;0.70;;;;;;;;;;5013418;28;20220;-67
2022/07/29 00:43:07;;;;;;;0.80;0.60;;;;;;;;;;5014682;28;20204;-67
2022/07/29 00:45:38;;;;;;;0.90;0.90;;;;;;;;;;4983229;28;20691;-67
2022/07/29 00:48:09;;;;;;;0.80;0.80;;;;;;;;;;5000458;28;20610;-67
2022/07/29 00:50:37;;;;;;;1.03;0.70;;;;;;;;;;5020997;28;20656;-67
2022/07/29 00:53:20;;;;;;;1.10;0.70;;;;;;;;;;5011443;28;20331;-67
2022/07/29 00:55:50;;;;;;;1.10;0.70;;;;;;;;;;4993849;28;20219;-67
2022/07/29 00:58:24;;;;;;;0.60;0.60;;;;;;;;;;5014847;28;20183;-67
2022/07/29 01:01:13;;;;;;;1.07;0.90;;;;;;;;;;5016500;28;20230;-67
2022/07/29 01:03:41;;;;;;;0.90;0.90;;;;;;;;;;5001858;28;20226;-67
2022/07/29 01:06:11;;;;;;;0.70;0.70;;;;;;;;;;5003169;28;20199;-68
2022/07/29 01:08:41;;;;;;;0.80;0.80;;;;;;;;;;4974469;28;20785;-68
2022/07/29 01:11:11;;;;;;;1.43;0.90;;;;;;;;;;4979934;28;20200;-68
2022/07/29 01:14:01;;;;;;;0.60;0.60;;;;;;;;;;4998024;28;20223;-68
2022/07/29 01:16:33;;;;;;;0.97;0.80;;;;;;;;;;4995549;28;20642;-68
2022/07/29 01:19:22;;;;;;;1.17;0.90;;;;;;;;;;4992895;28;20704;-68
2022/07/29 01:21:56;;;;;;;1.03;0.90;;;;;;;;;;4958727;28;20216;-68
2022/07/29 01:24:28;;;;;;;1.70;0.90;;;;;;;;;;4982670;28;20202;-68
2022/07/29 01:27:04;;;;;;;0.90;0.90;;;;;;;;;;4995344;28;20227;-68
2022/07/29 01:29:37;;;;;;;1.03;0.90;;;;;;;;;;4998116;28;20212;-68
2022/07/29 01:32:19;;;;;;;0.93;0.90;;;;;;;;;;5001579;28;20251;-68
2022/07/29 01:35:18;;;;;;;1.07;0.97;;;;;;;;;;4993279;28;20196;-68
2022/07/29 01:37:59;;;;;;;1.37;1.00;;;;;;;;;;4999347;28;20199;-68
2022/07/29 01:40:36;;;;;;;0.73;0.73;;;;;;;;;;4997381;28;20615;-68
2022/07/29 01:43:10;;;;;;;1.03;0.93;;;;;;;;;;5003945;28;20196;-68
2022/07/29 01:46:00;;;;;;;1.00;0.90;;;;;;;;;;4987408;28;20904;-68
2022/07/29 01:48:42;;;;;;;0.90;0.90;;;;;;;;;;4993124;28;20669;-68
2022/07/29 01:51:21;;;;;;;0.97;0.87;;;;;;;;;;4989138;28;20220;-68
2022/07/29 01:54:09;;;;;;;0.80;0.80;;;;;;;;;;4992945;28;20200;-68
2022/07/29 01:56:41;;;;;;;1.10;0.83;;;;;;;;;;5002340;28;20188;-68
2022/07/29 01:59:18;;;;;;;0.80;0.80;;;;;;;;;;4993921;28;20206;-68
2022/07/29 02:02:00;;;;;;;0.77;0.77;;;;;;;;;;4998081;28;20246;-68
2022/07/29 02:04:36;;;;;;;1.23;0.77;;;;;;;;;;5008827;28;20245;-68
2022/07/29 02:07:09;;;;;;;0.90;0.80;;;;;;;;;;5010884;28;20204;-68
2022/07/29 02:09:40;;;;;;;0.80;0.80;;;;;;;;;;5009297;28;20212;-69
2022/07/29 02:12:28;;;;;;;0.80;0.80;;;;;;;;;;5009011;28;20278;-68
2022/07/29 02:15:01;;;;;;;1.50;1.00;;;;;;;;;;5006054;28;20426;-68
2022/07/29 02:17:39;;;;;;;0.93;0.90;;;;;;;;;;5011681;28;20212;-67
2022/07/29 02:20:09;;;;;;;0.77;0.70;;;;;;;;;;5011291;28;20219;-68
2022/07/29 02:22:40;;;;;;;0.80;0.80;;;;;;;;;;4971945;28;20257;-68
2022/07/29 02:25:12;;;;;;;1.27;0.90;;;;;;;;;;4992412;28;20604;-68
2022/07/29 02:27:42;;;;;;;1.23;1.13;;;;;;;;;;5008970;28;20310;-68
2022/07/29 02:30:13;;;;;;;0.90;0.80;;;;;;;;;;5012680;28;20187;-68
2022/07/29 02:32:48;;;;;;;1.37;1.00;;;;;;;;;;5021700;28;20222;-68
2022/07/29 02:35:34;;;;;;;1.40;0.80;;;;;;;;;;5015414;28;20263;-68
2022/07/29 02:40:55;;;;;;;1.00;0.90;;;;;;;;;;5002862;28;20303;-68
2022/07/29 02:43:25;;;;;;;1.23;0.97;;;;;;;;;;5004354;28;20195;-68
2022/07/29 02:45:53;;;;;;;1.17;0.90;;;;;;;;;;4999336;28;20199;-68
2022/07/29 02:48:34;;;;;;;1.23;0.87;;;;;;;;;;5002458;28;20227;-68
2022/07/29 02:51:06;;;;;;;1.13;0.90;;;;;;;;;;5007085;28;20726;-68
2022/07/29 02:53:43;;;;;;;0.77;0.67;;;;;;;;;;4991929;28;20219;-68
2022/07/29 02:56:15;;;;;;;0.87;0.80;;;;;;;;;;4972466;28;20510;-68
2022/07/29 02:58:47;;;;;;;0.70;0.70;;;;;;;;;;4988989;28;20234;-68
2022/07/29 03:01:21;;;;;;;0.93;0.80;;;;;;;;;;5006714;28;20208;-68
2022/07/29 03:03:55;;;;;;;0.73;0.70;;;;;;;;;;4936784;28;20228;-68
2022/07/29 03:06:34;;;;;;;1.13;0.83;;;;;;;;;;5015286;28;20219;-68
2022/07/29 03:09:09;;;;;;;1.13;0.80;;;;;;;;;;4998654;28;20207;-68
2022/07/29 03:11:46;;;;;;;0.73;0.73;;;;;;;;;;4984948;28;20742;-68
2022/07/29 03:14:23;;;;;;;1.00;0.90;;;;;;;;;;4991490;28;20198;-68
2022/07/29 03:16:57;;;;;;;0.80;0.77;;;;;;;;;;4993708;28;20658;-68
2022/07/29 03:19:29;;;;;;;0.67;0.67;;;;;;;;;;5008269;28;20721;-68
2022/07/29 03:22:03;;;;;;;0.70;0.63;;;;;;;;;;5007587;28;20293;-68
2022/07/29 03:24:35;;;;;;;0.67;0.67;;;;;;;;;;5019726;28;20242;-68
2022/07/29 03:27:05;;;;;;;1.07;0.80;;;;;;;;;;5007299;28;20211;-68
2022/07/29 03:29:35;;;;;;;0.80;0.80;;;;;;;;;;5013001;28;20215;-67
2022/07/29 03:32:05;;;;;;;1.03;0.80;;;;;;;;;;5006182;28;20202;-67
2022/07/29 03:34:39;;;;;;;1.17;0.90;;;;;;;;;;5006434;28;20196;-67
2022/07/29 03:37:10;;;;;;;0.80;0.80;;;;;;;;;;5013473;28;20265;-68
2022/07/29 03:39:46;;;;;;;1.30;0.73;;;;;;;;;;5002068;28;20286;-68
2022/07/29 03:42:21;;;;;;;1.13;0.93;;;;;;;;;;5004769;28;20203;-68
2022/07/29 03:44:53;;;;;;;0.80;0.77;;;;;;;;;;5005340;28;20703;-67
2022/07/29 03:47:25;;;;;;;0.70;0.70;;;;;;;;;;5002603;28;20262;-67
2022/07/29 03:50:16;;;;;;;0.73;0.73;;;;;;;;;;4989296;28;20229;-67
2022/07/29 03:52:48;;;;;;;1.40;0.90;;;;;;;;;;5002615;28;20223;-68
2022/07/29 03:55:18;;;;;;;0.60;0.60;;;;;;;;;;5003191;28;20195;-67
2022/07/29 03:57:48;;;;;;;0.87;0.70;;;;;;;;;;5013964;28;20229;-67
2022/07/29 04:00:19;;;;;;;0.73;0.73;;;;;;;;;;5020967;28;20213;-67
2022/07/29 04:02:52;;;;;;;0.70;0.70;;;;;;;;;;4984910;28;20239;-68
2022/07/29 04:05:24;;;;;;;0.87;0.87;;;;;;;;;;4988257;28;20211;-68
2022/07/29 04:07:53;;;;;;;0.63;0.63;;;;;;;;;;5005191;28;20211;-68
2022/07/29 04:10:23;;;;;;;0.77;0.77;;;;;;;;;;5008422;28;20200;-68
2022/07/29 04:13:04;;;;;;;0.87;0.70;;;;;;;;;;5012080;28;20795;-68
2022/07/29 04:15:33;;;;;;;0.60;0.60;;;;;;;;;;5008614;28;20215;-68
2022/07/29 04:18:04;;;;;;;1.00;0.80;;;;;;;;;;5011325;28;20321;-68
2022/07/29 04:20:34;;;;;;;0.63;0.63;;;;;;;;;;5010064;28;20222;-68
2022/07/29 04:23:04;;;;;;;0.80;0.80;;;;;;;;;;5011362;28;20196;-68
2022/07/29 04:25:36;;;;;;;0.90;0.60;;;;;;;;;;5013457;28;20209;-68
2022/07/29 04:28:07;;;;;;;0.70;0.70;;;;;;;;;;5007601;28;20210;-68
2022/07/29 04:30:38;;;;;;;0.73;0.73;;;;;;;;;;4976038;28;20216;-68
2022/07/29 04:33:08;;;;;;;0.60;0.60;;;;;;;;;;5009458;28;20199;-68
2022/07/29 04:35:40;;;;;;;0.93;0.70;;;;;;;;;;4998116;28;20195;-68
2022/07/29 04:38:17;;;;;;;1.13;0.70;;;;;;;;;;4995579;28;20620;-68
2022/07/29 04:40:46;;;;;;;0.63;0.63;;;;;;;;;;5003890;28;20212;-68
2022/07/29 04:43:17;;;;;;;0.90;0.70;;;;;;;;;;4998999;28;20258;-68
2022/07/29 04:45:50;;;;;;;0.87;0.87;;;;;;;;;;4994730;28;20274;-68
2022/07/29 04:48:22;;;;;;;1.43;0.70;;;;;;;;;;4992661;28;20646;-67
2022/07/29 04:51:06;;;;;;;0.70;0.70;;;;;;;;;;4977839;28;20234;-67
2022/07/29 04:53:37;;;;;;;1.50;0.80;;;;;;;;;;4995705;28;20203;-68
2022/07/29 04:56:07;;;;;;;0.73;0.60;;;;;;;;;;5010805;28;20199;-67
2022/07/29 04:58:37;;;;;;;0.77;0.77;;;;;;;;;;5017727;28;20196;-67
2022/07/29 05:01:09;;;;;;;1.00;0.70;;;;;;;;;;5021583;28;20208;-67
2022/07/29 05:03:39;;;;;;;1.37;0.73;;;;;;;;;;5007724;28;20286;-67
2022/07/29 05:06:08;;;;;;;0.87;0.77;;;;;;;;;;5005989;28;20210;-68
2022/07/29 05:08:38;;;;;;;1.03;0.90;;;;;;;;;;5003198;28;20214;-68
2022/07/29 05:11:09;;;;;;;0.80;0.67;;;;;;;;;;5022552;28;20207;-68
2022/07/29 05:13:48;;;;;;;0.90;0.80;;;;;;;;;;5019524;28;20274;-68
2022/07/29 05:16:18;;;;;;;0.60;0.60;;;;;;;;;;5010298;28;20219;-68
2022/07/29 05:18:48;;;;;;;1.20;0.80;;;;;;;;;;5024185;28;20417;-68
2022/07/29 05:21:16;;;;;;;0.80;0.80;;;;;;;;;;5023517;28;20209;-68
2022/07/29 05:23:47;;;;;;;0.87;0.70;;;;;;;;;;5010732;28;20227;-68
2022/07/29 05:26:19;;;;;;;0.70;0.70;;;;;;;;;;4997021;28;20708;-67
2022/07/29 05:28:51;;;;;;;0.80;0.80;;;;;;;;;;4986856;28;20234;-68
2022/07/29 05:31:23;;;;;;;1.00;0.90;;;;;;;;;;4994699;28;20196;-67
2022/07/29 05:33:57;;;;;;;0.80;0.80;;;;;;;;;;5010305;28;20207;-68
2022/07/29 05:36:29;;;;;;;0.93;0.83;;;;;;;;;;5014419;28;20242;-68
2022/07/29 05:39:02;;;;;;;0.70;0.70;;;;;;;;;;5008257;28;20668;-67
2022/07/29 05:41:37;;;;;;;0.70;0.70;;;;;;;;;;4991855;28;20630;-68
2022/07/29 05:44:13;;;;;;;0.80;0.80;;;;;;;;;;4998631;28;20207;-67
2022/07/29 05:46:43;;;;;;;0.97;0.80;;;;;;;;;;5010719;28;20190;-67
2022/07/29 05:49:15;;;;;;;1.03;0.90;;;;;;;;;;5013626;28;20270;-67
2022/07/29 05:51:55;;;;;;;0.80;0.80;;;;;;;;;;5020499;28;20634;-68
2022/07/29 05:54:33;;;;;;;1.00;0.90;;;;;;;;;;5009540;28;20188;-67
2022/07/29 05:57:01;;;;;;;1.03;0.90;;;;;;;;;;5006566;28;20210;-68
2022/07/29 05:59:29;;;;;;;0.70;0.70;;;;;;;;;;5015017;28;20211;-68
2022/07/29 06:02:01;;;;;;;2.20;1.00;;;;;;;;;;5015435;28;20479;-68
2022/07/29 06:04:36;;;;;;;0.80;0.80;;;;;;;;;;5019025;28;20315;-67
2022/07/29 06:07:05;;;;;;;1.10;1.00;;;;;;;;;;5024820;28;20219;-67
2022/07/29 06:09:35;;;;;;;1.07;1.07;;;;;;;;;;5008731;28;20206;-67
2022/07/29 06:12:07;;;;;;;0.87;0.87;;;;;;;;;;5012965;28;20700;-67
2022/07/29 06:14:37;;;;;;;0.80;0.80;;;;;;;;;;5025242;28;20206;-68
2022/07/29 06:17:06;;;;;;;1.00;0.90;;;;;;;;;;5010867;28;20215;-69
2022/07/29 06:19:38;;;;;;;0.97;0.90;;;;;;;;;;4987921;28;20197;-68
2022/07/29 06:22:10;;;;;;;0.67;0.67;;;;;;;;;;5020584;28;20197;-68
2022/07/29 06:24:43;;;;;;;0.83;0.73;;;;;;;;;;5007845;28;20739;-68
2022/07/29 06:27:12;;;;;;;1.33;0.87;;;;;;;;;;5014546;28;20204;-68
2022/07/29 06:29:45;;;;;;;0.80;0.80;;;;;;;;;;4990511;28;20247;-68
2022/07/29 06:32:23;;;;;;;0.77;0.77;;;;;;;;;;4997506;28;20200;-67
2022/07/29 06:34:55;;;;;;;0.90;0.90;;;;;;;;;;5007003;28;20226;-68
2022/07/29 06:37:47;;;;;;;1.80;0.80;;;;;;;;;;5006212;28;20466;-68
2022/07/29 06:43:27;;;;;;;1.00;0.70;;;;;;;;;;5023059;28;20188;-67
2022/07/29 06:46:04;;;;;;;1.00;0.90;;;;;;;;;;5005051;28;20194;-68
2022/07/29 06:48:35;;;;;;;0.80;0.80;;;;;;;;;;4975264;28;20196;-67
2022/07/29 06:51:06;;;;;;;1.07;0.80;;;;;;;;;;4986602;28;20247;-67
2022/07/29 06:53:40;;;;;;;0.93;0.90;;;;;;;;;;5009628;28;20215;-68
2022/07/29 06:56:31;;;;;;;0.80;0.80;;;;;;;;;;4978831;28;20262;-68
2022/07/29 06:59:11;;;;;;;1.63;0.97;;;;;;;;;;5006492;28;20202;-68
2022/07/29 07:01:46;;;;;;;0.90;0.90;;;;;;;;;;5017177;28;20207;-68
2022/07/29 07:04:16;;;;;;;2.20;0.90;;;;;;;;;;5008939;28;20203;-68
2022/07/29 07:06:48;;;;;;;1.23;1.03;;;;;;;;;;4992882;28;20227;-68
2022/07/29 07:09:16;;;;;;;1.50;1.03;;;;;;;;;;5013765;28;20246;-68
2022/07/29 07:11:47;;;;;;;1.00;0.83;;;;;;;;;;5027485;28;20775;-68
2022/07/29 07:14:20;;;;;;;0.93;0.93;;;;;;;;;;5026001;28;20206;-68
2022/07/29 07:16:51;;;;;;;1.00;0.83;;;;;;;;;;4991939;28;20541;-68
2022/07/29 07:19:23;;;;;;;1.13;0.90;;;;;;;;;;5012901;28;20207;-68
2022/07/29 07:21:58;;;;;;;1.07;0.73;;;;;;;;;;5022213;28;20622;-68
2022/07/29 07:24:33;;;;;;;1.83;1.00;;;;;;;;;;5017208;28;20207;-68
2022/07/29 07:27:08;;;;;;;1.10;1.00;;;;;;;;;;5008937;28;20239;-68
2022/07/29 07:29:40;;;;;;;1.13;1.03;;;;;;;;;;4990621;28;20234;-68
2022/07/29 07:32:16;;;;;;;1.17;0.90;;;;;;;;;;4996692;28;20215;-68
2022/07/29 07:34:49;;;;;;;1.00;0.90;;;;;;;;;;5006162;28;20202;-68
2022/07/29 07:37:36;;;;;;;0.97;0.90;;;;;;;;;;4994193;28;20262;-68
2022/07/29 07:40:07;;;;;;;1.10;1.00;;;;;;;;;;5003508;28;20215;-68
2022/07/29 07:42:41;;;;;;;1.13;0.90;;;;;;;;;;5008925;28;20568;-68
2022/07/29 07:45:12;;;;;;;1.93;0.90;;;;;;;;;;4993468;28;20207;-67
2022/07/29 07:47:45;;;;;;;1.30;1.20;;;;;;;;;;5022447;28;20222;-67
2022/07/29 07:50:19;;;;;;;1.13;1.00;;;;;;;;;;5015517;28;20663;-68
2022/07/29 07:52:51;;;;;;;2.23;1.33;;;;;;;;;;4980246;28;20702;-68
2022/07/29 07:55:32;;;;;;;1.27;1.17;;;;;;;;;;5003654;28;20616;-68
2022/07/29 07:58:23;;;;;;;1.10;1.00;;;;;;;;;;5015420;28;20192;-68
2022/07/29 08:00:53;;;;;;;1.10;0.97;;;;;;;;;;5012698;28;20211;-68
2022/07/29 08:03:25;;;;;;;1.50;1.10;;;;;;;;;;5004373;28;20243;-68
2022/07/29 08:06:00;;;;;;;1.60;1.10;;;;;;;;;;5019916;28;20707;-67
2022/07/29 08:08:30;;;;;;;1.00;0.90;;;;;;;;;;5007277;28;20207;-67
2022/07/29 08:11:03;;;;;;;1.27;0.97;;;;;;;;;;4998424;28;20211;-67
2022/07/29 08:13:42;;;;;;;1.10;1.00;;;;;;;;;;5010154;28;20198;-67
2022/07/29 08:16:24;;;;;;;1.03;0.90;;;;;;;;;;5013972;28;20210;-67
2022/07/29 08:18:58;;;;;;;1.40;1.00;;;;;;;;;;5017390;28;20195;-68
2022/07/29 08:21:31;;;;;;;1.53;1.23;;;;;;;;;;5019960;28;20226;-67
2022/07/29 08:26:48;;;;;;;1.23;1.13;;;;;;;;;;4999309;28;20622;-67
2022/07/29 08:29:22;;;;;;;1.17;1.07;;;;;;;;;;5008366;28;20613;-68
2022/07/29 08:31:58;;;;;;;1.20;1.00;;;;;;;;;;5007359;28;20195;-68
2022/07/29 08:34:31;;;;;;;0.90;0.90;;;;;;;;;;5008870;28;20223;-68
2022/07/29 08:37:02;;;;;;;1.57;1.17;;;;;;;;;;5010445;28;20593;-68
2022/07/29 08:39:34;;;;;;;0.90;0.90;;;;;;;;;;5006662;28;20215;-68
2022/07/29 08:42:05;;;;;;;1.23;1.00;;;;;;;;;;4995795;28;20203;-68
2022/07/29 08:44:37;;;;;;;1.30;1.20;;;;;;;;;;5007941;28;20235;-68
2022/07/29 08:47:05;;;;;;;1.50;1.10;;;;;;;;;;4982118;28;20656;-68
2022/07/29 08:49:37;;;;;;;1.17;1.07;;;;;;;;;;5018617;28;20212;-68
2022/07/29 08:52:11;;;;;;;1.30;1.20;;;;;;;;;;5002370;28;20219;-68
2022/07/29 08:54:47;;;;;;;1.03;1.03;;;;;;;;;;5005668;28;20275;-68
2022/07/29 08:57:20;;;;;;;1.33;1.10;;;;;;;;;;5007717;28;20203;-68
2022/07/29 08:59:50;;;;;;;0.80;0.80;;;;;;;;;;5012355;28;20195;-67
2022/07/29 09:02:23;;;;;;;1.10;1.00;;;;;;;;;;5009291;28;20613;-68
2022/07/29 09:04:58;;;;;;;1.03;1.00;;;;;;;;;;4987439;28;20849;-68
2022/07/29 09:07:28;;;;;;;1.40;1.03;;;;;;;;;;5014932;28;20191;-68
2022/07/29 09:10:02;;;;;;;1.27;1.13;;;;;;;;;;5015687;28;20230;-67
2022/07/29 09:12:33;;;;;;;1.13;0.90;;;;;;;;;;4992366;28;20218;-68
2022/07/29 09:15:07;;;;;;;1.20;0.90;;;;;;;;;;5016713;28;20207;-67
2022/07/29 09:17:48;;;;;;;0.80;0.80;;;;;;;;;;5018908;28;20391;-68
2022/07/29 09:21:57;;;;;;;1.07;0.90;;;;;;;;;;4987775;28;20200;-67
2022/07/29 09:23:30;;;;;;;1.37;1.10;;;;;;;;;;5016814;28;20654;-67
2022/07/29 09:26:22;;;;;;;1.50;1.00;;;;;;;;;;5006417;28;20210;-67
2022/07/29 09:28:52;;;;;;;0.90;0.90;;;;;;;;;;5013089;28;20211;-67
2022/07/29 09:31:35;;;;;;;1.20;1.10;;;;;;;;;;4999248;28;20243;-68
2022/07/29 09:34:06;;;;;;;1.00;0.80;;;;;;;;;;5011470;28;20197;-67
2022/07/29 09:36:43;;;;;;;1.00;1.00;;;;;;;;;;5009577;28;20195;-67
2022/07/29 09:39:12;;;;;;;1.07;0.97;;;;;;;;;;5021076;28;20529;-67
2022/07/29 09:41:55;;;;;;;1.10;1.00;;;;;;;;;;4990320;28;20200;-67
2022/07/29 09:44:24;;;;;;;1.77;1.03;;;;;;;;;;5007404;28;20238;-67
2022/07/29 09:47:09;;;;;;;1.10;1.10;;;;;;;;;;5009924;28;20207;-67
2022/07/29 09:49:59;;;;;;;1.00;0.87;;;;;;;;;;4993088;28;20282;-67
2022/07/29 09:52:30;;;;;;;0.90;0.90;;;;;;;;;;5006619;28;20211;-67
2022/07/29 09:55:09;;;;;;;1.00;0.83;;;;;;;;;;5009596;28;20295;-67
2022/07/29 09:57:53;;;;;;;2.27;1.30;;;;;;;;;;5016834;28;20218;-67
2022/07/29 10:00:27;;;;;;;1.40;1.13;;;;;;;;;;5019695;28;20191;-66
2022/07/29 10:03:02;;;;;;;1.10;1.10;;;;;;;;;;5010769;28;20249;-67
2022/07/29 10:05:32;;;;;;;1.00;1.00;;;;;;;;;;4980781;28;20199;-67
2022/07/29 10:08:12;;;;;;;1.13;1.10;;;;;;;;;;5009505;28;20238;-67
2022/07/29 10:10:43;;;;;;;1.37;1.20;;;;;;;;;;5002669;28;20215;-67
2022/07/29 10:13:16;;;;;;;1.20;1.10;;;;;;;;;;4994299;28;20246;-67
2022/07/29 10:15:46;;;;;;;1.20;1.10;;;;;;;;;;4992333;28;20223;-66
2022/07/29 10:18:19;;;;;;;0.97;0.87;;;;;;;;;;5011950;28;20195;-67
2022/07/29 10:20:50;;;;;;;0.97;0.93;;;;;;;;;;5009966;28;20945;-67
2022/07/29 10:23:20;;;;;;;1.30;1.20;;;;;;;;;;4996984;28;20199;-67
2022/07/29 10:25:51;;;;;;;1.00;0.90;;;;;;;;;;5017071;28;20203;-67
2022/07/29 10:28:24;;;;;;;1.73;1.20;;;;;;;;;;5003939;28;20749;-67
2022/07/29 10:31:01;;;;;;;1.20;1.10;;;;;;;;;;5006323;28;20216;-67
2022/07/29 10:33:59;;;;;;;1.63;1.20;;;;;;;;;;5008626;28;20699;-67
2022/07/29 10:36:36;;;;;;;1.10;1.00;;;;;;;;;;5019106;28;20200;-67
2022/07/29 10:39:26;;;;;;;2.10;1.10;;;;;;;;;;5015567;28;20226;-67
2022/07/29 10:42:23;;;;;;;1.50;1.13;;;;;;;;;;5010024;28;20565;-67
2022/07/29 10:45:08;;;;;;;1.00;0.90;;;;;;;;;;5006351;28;20684;-67
2022/07/29 10:47:39;;;;;;;1.30;1.20;;;;;;;;;;5012252;28;20274;-67
2022/07/29 10:50:22;;;;;;;1.20;1.10;;;;;;;;;;4991950;28;20861;-67
2022/07/29 10:52:58;;;;;;;1.20;1.10;;;;;;;;;;5000682;28;20723;-67
2022/07/29 10:55:31;;;;;;;1.37;1.20;;;;;;;;;;5018284;28;20188;-67
2022/07/29 10:58:29;;;;;;;1.53;1.20;;;;;;;;;;5006403;28;20250;-67
2022/07/29 11:00:58;;;;;;;1.33;1.10;;;;;;;;;;5002355;28;20208;-67
2022/07/29 11:03:51;;;;;;;1.10;1.00;;;;;;;;;;5005230;28;20699;-67
2022/07/29 11:06:26;;;;;;;1.30;1.20;;;;;;;;;;5005636;28;20262;-67
2022/07/29 11:09:26;;;;;;;1.40;1.30;;;;;;;;;;5007452;28;20667;-66
2022/07/29 11:12:24;;;;;;;2.57;1.37;;;;;;;;;;4945568;28;20235;-66
2022/07/29 11:15:02;;;;;;;1.70;1.50;;;;;;;;;;4999247;28;20747;-66
2022/07/29 11:17:58;;;;;;;1.40;1.30;;;;;;;;;;4987616;28;20208;-66
2022/07/29 11:20:59;;;;;;;1.57;1.37;;;;;;;;;;5011978;28;20579;-66
2022/07/29 11:23:36;;;;;;;1.57;1.33;;;;;;;;;;4991040;28;20717;-66
2022/07/29 11:26:22;;;;;;;1.90;1.30;;;;;;;;;;4992685;28;20196;-66
2022/07/29 11:29:03;;;;;;;1.57;1.10;;;;;;;;;;5016599;28;20222;-65
2022/07/29 11:31:44;;;;;;;1.57;1.30;;;;;;;;;;5006234;28;20228;-65
2022/07/29 11:34:27;;;;;;;1.70;1.20;;;;;;;;;;5002636;28;20202;-66
2022/07/29 11:37:05;;;;;;;1.67;1.53;;;;;;;;;;5016534;28;20215;-66
2022/07/29 11:39:37;;;;;;;1.40;1.30;;;;;;;;;;5001430;28;20231;-66
2022/07/29 11:42:25;;;;;;;2.10;1.50;;;;;;;;;;4990898;28;20209;-66
2022/07/29 11:45:02;;;;;;;1.60;1.30;;;;;;;;;;5018112;28;20200;-66
2022/07/29 11:48:01;;;;;;;3.03;1.50;;;;;;;;;;5016939;28;20199;-65
2022/07/29 11:50:56;;;;;;;1.37;1.27;;;;;;;;;;4987044;28;20301;-65
2022/07/29 11:53:32;;;;;;;1.73;1.37;;;;;;;;;;5010500;28;20206;-66
2022/07/29 11:56:02;;;;;;;1.20;1.10;;;;;;;;;;5023810;28;20218;-66
2022/07/29 11:58:34;;;;;;;1.93;1.30;;;;;;;;;;5019007;28;20655;-66
2022/07/29 12:01:07;;;;;;;2.83;1.60;;;;;;;;;;4999198;28;20567;-66
2022/07/29 12:03:38;;;;;;;1.93;1.30;;;;;;;;;;5005275;28;20466;-66
2022/07/29 12:06:19;;;;;;;1.43;1.10;;;;;;;;;;5008233;28;20206;-66
2022/07/29 12:09:09;;;;;;;1.93;1.30;;;;;;;;;;5004433;28;20196;-66
2022/07/29 12:11:43;;;;;;;1.63;1.53;;;;;;;;;;4988972;28;20222;-67
2022/07/29 12:14:30;;;;;;;1.80;1.57;;;;;;;;;;5000144;28;20643;-66
2022/07/29 12:17:03;;;;;;;1.90;1.20;;;;;;;;;;4986750;28;20211;-66
2022/07/29 12:19:46;;;;;;;1.20;1.10;;;;;;;;;;5007068;28;20222;-66
2022/07/29 12:22:31;;;;;;;1.47;1.37;;;;;;;;;;4991236;28;20216;-66
2022/07/29 12:25:05;;;;;;;1.40;1.30;;;;;;;;;;4999707;28;20242;-66
2022/07/29 12:27:59;;;;;;;2.80;1.70;;;;;;;;;;5009412;28;20550;-66
2022/07/29 12:30:39;;;;;;;1.50;1.40;;;;;;;;;;5012431;28;20253;-66
2022/07/29 12:33:22;;;;;;;2.03;1.43;;;;;;;;;;5016245;28;20195;-66
2022/07/29 12:35:56;;;;;;;2.33;1.43;;;;;;;;;;5017317;28;20533;-66
2022/07/29 12:38:46;;;;;;;1.50;1.40;;;;;;;;;;4966586;28;20697;-65
2022/07/29 12:41:16;;;;;;;2.53;1.80;;;;;;;;;;5022047;28;20218;-65
2022/07/29 12:43:58;;;;;;;2.43;1.87;;;;;;;;;;5011528;28;20196;-67
2022/07/29 12:46:36;;;;;;;2.10;1.60;;;;;;;;;;5019789;28;20196;-66
2022/07/29 12:49:06;;;;;;;1.73;1.63;;;;;;;;;;5002352;28;20708;-66
2022/07/29 12:51:37;;;;;;;1.63;1.53;;;;;;;;;;5005572;28;20232;-66
2022/07/29 12:54:13;;;;;;;2.00;1.73;;;;;;;;;;4993132;28;20211;-66
2022/07/29 12:56:46;;;;;;;1.97;1.53;;;;;;;;;;5013215;28;20210;-66
2022/07/29 12:59:17;;;;;;;1.80;1.63;;;;;;;;;;4995059;28;20229;-66
2022/07/29 13:01:50;;;;;;;1.80;1.70;;;;;;;;;;5010835;28;20196;-66
2022/07/29 13:04:27;;;;;;;3.30;1.60;;;;;;;;;;4997052;28;20273;-66
2022/07/29 13:07:01;;;;;;;1.87;1.70;;;;;;;;;;5003846;28;20199;-67
2022/07/29 13:09:45;;;;;;;3.00;1.60;;;;;;;;;;5013885;28;20195;-67
2022/07/29 13:12:22;;;;;;;1.50;1.40;;;;;;;;;;4999030;28;20231;-66
2022/07/29 13:14:57;;;;;;;1.63;1.53;;;;;;;;;;4998999;28;20188;-66
2022/07/29 13:17:29;;;;;;;2.07;1.80;;;;;;;;;;5011300;28;20404;-66
2022/07/29 13:20:12;;;;;;;2.93;1.77;;;;;;;;;;5015906;28;20487;-66
2022/07/29 13:22:51;;;;;;;1.73;1.60;;;;;;;;;;5006031;28;20301;-67
2022/07/29 13:25:25;;;;;;;1.90;1.57;;;;;;;;;;5007699;28;20203;-66
2022/07/29 13:27:54;;;;;;;1.40;1.20;;;;;;;;;;5009357;28;20212;-67
2022/07/29 13:30:30;;;;;;;1.70;1.60;;;;;;;;;;4992166;28;20196;-66
2022/07/29 13:33:00;;;;;;;1.83;1.60;;;;;;;;;;4990510;28;20195;-67
2022/07/29 13:35:32;;;;;;;2.60;2.13;;;;;;;;;;5007968;28;20200;-66
2022/07/29 13:38:08;;;;;;;2.00;1.80;;;;;;;;;;5005636;28;20201;-67
2022/07/29 13:40:41;;;;;;;1.87;1.57;;;;;;;;;;4982697;28;20212;-66
2022/07/29 13:43:12;;;;;;;1.87;1.77;;;;;;;;;;4992370;28;20199;-66
2022/07/29 13:45:41;;;;;;;2.40;1.53;;;;;;;;;;4999137;28;20204;-66
2022/07/29 13:48:15;;;;;;;2.27;1.50;;;;;;;;;;5006092;28;20195;-66
2022/07/29 13:50:46;;;;;;;1.87;1.60;;;;;;;;;;5010225;28;20188;-66
2022/07/29 13:53:18;;;;;;;1.50;1.40;;;;;;;;;;5008929;28;20196;-67
2022/07/29 13:55:53;;;;;;;2.03;1.50;;;;;;;;;;5009813;28;20210;-66
2022/07/29 13:58:24;;;;;;;1.77;1.40;;;;;;;;;;5003736;28;20215;-66
2022/07/29 14:00:57;;;;;;;2.80;1.77;;;;;;;;;;5019528;28;20651;-66
2022/07/29 14:03:27;;;;;;;1.97;1.67;;;;;;;;;;5005412;28;20239;-67
2022/07/29 14:05:59;;;;;;;1.80;1.70;;;;;;;;;;4996474;28;20197;-66
2022/07/29 14:08:37;;;;;;;2.13;1.80;;;;;;;;;;5016506;28;20212;-67
2022/07/29 14:11:11;;;;;;;2.57;1.70;;;;;;;;;;5023707;28;20277;-66
2022/07/29 14:13:41;;;;;;;2.10;1.70;;;;;;;;;;5005351;28;20741;-66
2022/07/29 14:16:10;;;;;;;1.90;1.70;;;;;;;;;;5020225;28;20222;-67
2022/07/29 14:18:56;;;;;;;2.17;1.60;;;;;;;;;;5000207;28;20222;-66
2022/07/29 14:21:28;;;;;;;1.70;1.60;;;;;;;;;;5009064;28;20202;-67
2022/07/29 14:24:01;;;;;;;1.40;1.30;;;;;;;;;;4992399;28;20609;-66
2022/07/29 14:26:46;;;;;;;1.60;1.50;;;;;;;;;;4991093;28;20250;-66
2022/07/29 14:29:17;;;;;;;1.70;1.60;;;;;;;;;;5018814;28;20202;-67
2022/07/29 14:32:06;;;;;;;2.03;1.53;;;;;;;;;;5015707;28;20244;-66
2022/07/29 14:34:47;;;;;;;2.43;1.60;;;;;;;;;;5002122;28;20199;-67
2022/07/29 14:37:22;;;;;;;1.87;1.60;;;;;;;;;;5024268;28;20532;-66
2022/07/29 14:39:54;;;;;;;1.50;1.40;;;;;;;;;;5008938;28;20229;-67
2022/07/29 14:42:26;;;;;;;2.07;1.70;;;;;;;;;;5007059;28;20256;-66
2022/07/29 14:44:57;;;;;;;2.17;1.83;;;;;;;;;;5023288;28;20215;-66
2022/07/29 14:47:29;;;;;;;1.73;1.63;;;;;;;;;;4998145;28;20564;-67
2022/07/29 14:50:01;;;;;;;2.53;2.00;;;;;;;;;;5015898;28;20207;-66
2022/07/29 14:52:34;;;;;;;1.80;1.70;;;;;;;;;;4994193;28;20250;-66
2022/07/29 14:55:07;;;;;;;2.33;1.67;;;;;;;;;;4986434;28;20302;-66
2022/07/29 14:57:47;;;;;;;1.80;1.70;;;;;;;;;;5006828;28;20740;-66
2022/07/29 15:00:32;;;;;;;1.87;1.60;;;;;;;;;;5007381;28;20231;-66
2022/07/29 15:03:04;;;;;;;2.73;2.00;;;;;;;;;;5001087;28;20231;-66
2022/07/29 15:05:34;;;;;;;3.20;1.80;;;;;;;;;;5007894;28;20282;-66
2022/07/29 15:08:07;;;;;;;3.73;2.00;;;;;;;;;;4990399;28;20719;-66
2022/07/29 15:10:42;;;;;;;3.63;1.60;;;;;;;;;;5000208;28;20265;-66
2022/07/29 15:13:11;;;;;;;2.00;1.83;;;;;;;;;;5018969;28;20222;-66
2022/07/29 15:15:42;;;;;;;2.10;1.87;;;;;;;;;;5013407;28;20367;-67
2022/07/29 15:18:13;;;;;;;2.17;1.80;;;;;;;;;;5018011;28;20850;-66
2022/07/29 15:20:54;;;;;;;1.87;1.67;;;;;;;;;;4993472;28;20191;-66
2022/07/29 15:23:22;;;;;;;2.40;1.80;;;;;;;;;;4996975;28;20609;-67
2022/07/29 15:25:54;;;;;;;1.93;1.80;;;;;;;;;;5020364;28;20659;-66
2022/07/29 15:28:23;;;;;;;3.27;2.10;;;;;;;;;;5016034;28;20226;-65
2022/07/29 15:30:54;;;;;;;4.60;2.33;;;;;;;;;;5003969;28;20203;-66
2022/07/29 15:33:26;;;;;;;2.13;1.60;;;;;;;;;;4994873;28;20295;-66
2022/07/29 15:35:58;;;;;;;2.13;1.60;;;;;;;;;;5005888;28;20199;-66
2022/07/29 15:38:31;;;;;;;2.30;1.90;;;;;;;;;;5013061;28;20198;-66
2022/07/29 15:41:09;;;;;;;1.70;1.60;;;;;;;;;;5019177;28;20199;-66
2022/07/29 15:43:48;;;;;;;2.63;1.87;;;;;;;;;;5003101;28;20199;-66